createdAt,value
2023-01-28T00:00:55.765Z,15.80
2023-01-28T01:01:17.269Z,17.40
2023-01-28T01:05:13.420Z,16.70
2023-01-28T02:22:31.860Z,16.30
2023-01-28T02:26:02.207Z,15.83
2023-01-28T02:29:11.699Z,16.60
2023-01-28T02:31:53.877Z,15.87
2023-01-28T02:34:40.775Z,17.17
2023-01-28T02:37:22.591Z,16.03
2023-01-28T02:39:59.843Z,15.93
2023-01-28T02:42:37.359Z,15.23
2023-01-28T02:45:24.895Z,16.70
2023-01-28T02:47:59.204Z,15.40
2023-01-28T02:51:02.649Z,15.70
2023-01-28T02:54:14.012Z,18.73
2023-01-28T02:57:03.781Z,16.93
2023-01-28T02:59:43.909Z,17.33
2023-01-28T03:02:38.833Z,16.30
2023-01-28T03:05:30.806Z,15.93
2023-01-28T03:08:32.244Z,16.30
2023-01-28T03:11:26.917Z,15.93
2023-01-28T03:14:20.887Z,16.00
2023-01-28T03:17:26.576Z,15.60
2023-01-28T03:20:19.200Z,15.67
2023-01-28T03:23:18.379Z,15.80
2023-01-28T03:26:17.761Z,15.60
2023-01-28T03:29:14.672Z,15.60
2023-01-28T03:32:10.896Z,15.77
2023-01-28T03:35:06.882Z,15.90
2023-01-28T03:37:53.301Z,15.80
2023-01-28T03:40:51.920Z,16.00
2023-01-28T03:43:31.544Z,16.70
2023-01-28T03:49:19.339Z,18.33
2023-01-28T03:52:26.254Z,15.80
2023-01-28T03:55:29.116Z,15.70
2023-01-28T03:58:15.867Z,15.50
2023-01-28T04:01:08.402Z,15.50
2023-01-28T04:03:45.949Z,16.07
2023-01-28T04:06:38.069Z,16.10
2023-01-28T04:09:29.828Z,16.37
2023-01-28T04:12:52.797Z,15.83
2023-01-28T04:15:49.444Z,16.67
2023-01-28T04:18:27.660Z,16.53
2023-01-28T04:21:09.540Z,18.27
2023-01-28T04:23:54.656Z,16.00
2023-01-28T04:26:32.741Z,16.83
2023-01-28T04:29:20.709Z,16.40
2023-01-28T04:32:01.679Z,19.67
2023-01-28T04:35:01.527Z,15.83
2023-01-28T04:37:54.253Z,16.10
2023-01-28T04:40:48.285Z,16.30
2023-01-28T04:43:46.727Z,18.77
2023-01-28T04:50:08.935Z,16.50
2023-01-28T04:53:00.448Z,15.90
2023-01-28T04:55:57.840Z,16.20
2023-01-28T04:58:39.835Z,16.23
2023-01-28T05:01:34.410Z,16.00
2023-01-28T05:04:06.064Z,16.33
2023-01-28T05:06:42.916Z,16.63
2023-01-28T05:09:27.079Z,15.73
2023-01-28T05:12:01.821Z,16.77
2023-01-28T05:14:54.704Z,15.80
2023-01-28T05:17:56.595Z,17.20
2023-01-28T05:20:50.732Z,16.10
2023-01-28T05:23:24.174Z,15.80
2023-01-28T05:26:05.982Z,16.00
2023-01-28T05:28:52.849Z,16.37
2023-01-28T05:31:30.220Z,17.13
2023-01-28T05:34:12.957Z,16.17
2023-01-28T05:37:10.908Z,16.20
2023-01-28T05:39:55.227Z,17.20
2023-01-28T05:42:29.182Z,17.50
2023-01-28T05:45:33.127Z,15.87
2023-01-28T05:48:22.568Z,15.50
2023-01-28T05:51:31.061Z,15.90
2023-01-28T05:54:19.429Z,15.80
2023-01-28T05:57:15.570Z,16.17
2023-01-28T06:00:25.747Z,15.80
2023-01-28T06:02:54.967Z,15.53
2023-01-28T06:05:24.857Z,15.80
2023-01-28T06:08:03.427Z,16.93
2023-01-28T06:10:56.175Z,15.50
2023-01-28T06:13:36.900Z,16.63
2023-01-28T06:16:40.064Z,16.97
2023-01-28T06:19:56.413Z,15.60
2023-01-28T06:22:38.659Z,17.50
2023-01-28T06:25:23.452Z,15.87
2023-01-28T06:28:15.866Z,18.43
2023-01-28T06:30:58.699Z,16.00
2023-01-28T06:33:47.431Z,17.17
2023-01-28T06:36:20.263Z,16.17
2023-01-28T06:38:57.763Z,15.60
2023-01-28T06:41:34.039Z,15.43
2023-01-28T06:44:17.177Z,16.53
2023-01-28T06:46:48.859Z,17.80
2023-01-28T06:49:21.514Z,15.93
2023-01-28T06:52:10.808Z,15.97
2023-01-28T06:54:44.432Z,15.90
2023-01-28T06:57:38.455Z,15.60
2023-01-28T07:00:20.111Z,16.50
2023-01-28T07:03:08.269Z,16.10
2023-01-28T07:05:50.196Z,16.83
2023-01-28T07:08:27.277Z,15.23
2023-01-28T07:11:12.968Z,16.10
2023-01-28T07:13:48.248Z,14.87
2023-01-28T07:19:40.836Z,17.60
2023-01-28T07:22:32.630Z,15.77
2023-01-28T07:25:08.458Z,15.23
2023-01-28T07:28:41.879Z,16.27
2023-01-28T07:34:01.335Z,14.60
2023-01-28T07:36:32.244Z,14.70
2023-01-28T07:39:08.349Z,15.13
2023-01-28T07:41:45.574Z,14.90
2023-01-28T07:45:02.782Z,15.20
2023-01-28T07:47:34.965Z,15.27
2023-01-28T07:50:19.449Z,14.80
2023-01-28T07:56:10.480Z,14.80
2023-01-28T07:59:12.220Z,14.50
2023-01-28T08:01:58.202Z,14.90
2023-01-28T08:04:45.449Z,15.30
2023-01-28T08:07:42.509Z,14.77
2023-01-28T08:10:25.805Z,14.80
2023-01-28T08:16:16.677Z,15.00
2023-01-28T08:19:25.594Z,15.60
2023-01-28T08:22:16.445Z,15.10
2023-01-28T08:24:59.415Z,14.63
2023-01-28T08:27:49.075Z,15.10
2023-01-28T08:30:49.654Z,14.77
2023-01-28T08:33:44.691Z,13.40
2023-01-28T08:36:59.563Z,15.30
2023-01-28T08:39:40.157Z,14.43
2023-01-28T08:42:15.515Z,14.93
2023-01-28T08:44:48.607Z,14.93
2023-01-28T08:47:46.391Z,14.80
2023-01-28T08:50:33.402Z,14.83
2023-01-28T08:53:31.742Z,14.70
2023-01-28T08:56:26.870Z,15.00
2023-01-28T08:59:08.057Z,14.40
2023-01-28T09:01:49.653Z,14.40
2023-01-28T09:04:54.345Z,14.70
2023-01-28T09:07:27.129Z,14.90
2023-01-28T09:10:14.308Z,14.77
2023-01-28T09:13:05.992Z,15.20
2023-01-28T09:16:53.946Z,14.20
2023-01-28T09:20:07.216Z,13.37
2023-01-28T09:23:05.099Z,16.00
2023-01-28T09:26:07.468Z,14.73
2023-01-28T09:35:01.983Z,14.20
2023-01-28T09:38:01.146Z,13.03
2023-01-28T09:40:49.066Z,14.20
2023-01-28T09:43:54.999Z,14.50
2023-01-28T09:46:49.561Z,15.50
2023-01-28T09:53:23.906Z,14.70
2023-01-28T09:56:40.778Z,13.90
2023-01-28T09:59:34.351Z,14.50
2023-01-28T10:03:08.672Z,14.33
2023-01-28T10:06:19.160Z,13.60
2023-01-28T10:09:40.981Z,14.90
2023-01-28T10:12:53.953Z,14.70
2023-01-28T10:15:59.775Z,14.30
2023-01-28T10:19:06.442Z,14.23
2023-01-28T10:21:59.339Z,14.10
2023-01-28T10:25:03.504Z,12.90
2023-01-28T10:28:06.857Z,14.00
2023-01-28T10:30:55.643Z,14.40
2023-01-28T10:33:57.859Z,14.30
2023-01-28T10:39:47.669Z,15.13
2023-01-28T10:42:57.964Z,15.40
2023-01-28T10:45:34.927Z,14.00
2023-01-28T10:48:52.667Z,13.93
2023-01-28T10:51:42.295Z,14.10
2023-01-28T10:54:25.117Z,13.70
2023-01-28T10:56:57.462Z,14.10
2023-01-28T10:59:45.632Z,15.00
2023-01-28T11:02:34.143Z,13.80
2023-01-28T11:05:48.242Z,14.13
2023-01-28T11:08:54.909Z,14.30
2023-01-28T11:12:05.279Z,14.20
2023-01-28T11:14:42.071Z,14.73
2023-01-28T11:17:40.469Z,13.63
2023-01-28T11:23:59.442Z,14.00
2023-01-28T11:33:38.646Z,14.50
2023-01-28T11:36:16.353Z,14.60
2023-01-28T11:42:58.583Z,14.60
2023-01-28T11:45:46.856Z,14.43
2023-01-28T11:48:54.873Z,14.50
2023-01-28T11:52:05.094Z,14.30
2023-01-28T11:54:54.536Z,14.10
2023-01-28T12:02:00.688Z,14.40
2023-01-28T12:05:10.580Z,14.30
2023-01-28T12:15:17.793Z,14.50
2023-01-28T12:18:31.462Z,15.20
2023-01-28T12:22:27.745Z,14.80
2023-01-28T12:30:00.137Z,15.87
2023-01-28T12:36:29.881Z,13.37
2023-01-28T12:40:07.517Z,14.30
2023-01-28T12:43:17.222Z,15.10
2023-01-28T12:46:30.719Z,15.17
2023-01-28T12:49:20.160Z,13.90
2023-01-28T12:52:20.343Z,14.07
2023-01-28T12:58:35.634Z,12.87
2023-01-28T13:01:26.563Z,13.90
2023-01-28T13:04:14.611Z,13.80
2023-01-28T13:07:10.508Z,13.80
2023-01-28T13:09:56.268Z,14.20
2023-01-28T13:12:44.240Z,13.50
2023-01-28T13:15:33.110Z,13.50
2023-01-28T13:18:20.536Z,14.07
2023-01-28T13:21:11.907Z,13.97
2023-01-28T13:23:47.723Z,14.20
2023-01-28T13:27:15.529Z,14.87
2023-01-28T13:30:05.704Z,13.10
2023-01-28T13:32:45.613Z,16.93
2023-01-28T13:36:07.497Z,15.13
2023-01-28T13:38:52.773Z,14.20
2023-01-28T13:45:03.867Z,14.10
2023-01-28T13:50:48.696Z,15.63
2023-01-28T13:53:58.734Z,13.87
2023-01-28T13:56:51.463Z,14.30
2023-01-28T14:00:11.462Z,13.80
2023-01-28T14:03:34.995Z,14.40
2023-01-28T14:06:39.004Z,14.30
2023-01-28T14:09:54.211Z,15.50
2023-01-28T14:13:04.793Z,14.10
2023-01-28T14:16:22.455Z,14.17
2023-01-28T14:18:56.582Z,13.60
2023-01-28T14:21:29.663Z,13.57
2023-01-28T14:24:02.680Z,13.60
2023-01-28T14:26:44.539Z,13.80
2023-01-28T14:29:36.523Z,15.30
2023-01-28T14:32:07.540Z,14.23
2023-01-28T14:34:37.697Z,13.83
2023-01-28T14:37:15.780Z,14.03
2023-01-28T14:39:50.462Z,13.87
2023-01-28T14:42:30.571Z,14.40
2023-01-28T14:45:17.586Z,15.67
2023-01-28T14:48:16.341Z,13.50
2023-01-28T14:51:14.697Z,13.70
2023-01-28T14:54:28.742Z,13.67
2023-01-28T14:57:15.454Z,13.07
2023-01-28T18:05:40.894Z,14.40
2023-01-28T19:21:05.851Z,13.83
2023-01-28T19:24:07.611Z,13.93
2023-01-28T19:27:30.180Z,13.00
2023-01-28T19:30:44.360Z,14.60
2023-01-28T19:33:43.012Z,14.43
2023-01-28T19:36:47.301Z,14.10
2023-01-28T19:39:59.312Z,15.10
2023-01-28T19:43:10.315Z,15.37
2023-01-28T19:46:12.372Z,14.60
2023-01-28T19:49:03.018Z,14.07
2023-01-28T19:51:42.102Z,14.30
2023-01-28T19:54:23.124Z,15.07
2023-01-28T20:02:51.786Z,14.20
2023-01-28T20:04:22.223Z,14.43
2023-01-28T20:12:17.196Z,15.53
2023-01-28T20:54:33.294Z,15.40
2023-01-28T22:14:40.026Z,17.73
2023-01-28T22:18:11.794Z,15.80
2023-01-28T22:20:45.520Z,15.70
2023-01-28T22:23:18.507Z,15.40
2023-01-28T22:26:14.618Z,15.30
2023-01-28T22:31:46.823Z,15.30
2023-01-28T22:34:46.889Z,15.70
2023-01-28T22:37:39.212Z,15.70
2023-01-28T22:40:23.539Z,17.63
2023-01-28T22:43:31.561Z,15.63
2023-01-28T22:46:19.095Z,15.97
2023-01-28T22:49:04.772Z,15.53
2023-01-28T22:55:15.698Z,15.93
2023-01-28T23:04:12.699Z,15.70
2023-01-28T23:07:15.560Z,15.40
2023-01-28T23:09:47.846Z,17.20
2023-01-28T23:12:37.426Z,15.30
2023-01-28T23:15:29.412Z,18.60
2023-01-28T23:21:53.337Z,18.20
2023-01-28T23:25:08.624Z,15.57
2023-01-28T23:43:11.932Z,17.03
2023-01-28T23:46:27.406Z,15.70
2023-01-28T23:49:15.964Z,16.10
2023-01-28T23:55:31.829Z,14.90
2023-01-28T23:58:41.844Z,15.03
